Time;durP1;ratioP1;P1;durP2;ratioP2;P2;SDS_P1;SDS_P2;PMS_P1;PMS_P2;Temp;Humidity;BMP_temperature;BMP_pressure;BME280_temperature;BME280_humidity;BME280_pressure;Samples;Min_cycle;Max_cycle;Signal;HPM_P1;HPM_P2
2022/07/23 00:00:24;;;;;;;9.65;7.32;;;;;;;22.72;70.69;98534.06;4170291;28;20232;-53
2022/07/23 00:02:26;;;;;;;7.35;6.82;;;;;;;22.78;70.78;98543.91;4172578;28;20207;-53
2022/07/23 00:04:28;;;;;;;7.03;6.53;;;;;;;22.77;70.94;98547.84;4180725;28;20645;-52
2022/07/23 00:06:29;;;;;;;11.43;7.15;;;;;;;22.86;70.88;98551.44;4173086;28;20647;-53
2022/07/23 00:08:31;;;;;;;7.57;6.80;;;;;;;22.83;70.90;98546.53;4167737;28;20740;-52
2022/07/23 00:10:33;;;;;;;6.65;6.22;;;;;;;22.84;70.91;98550.97;4166409;28;20267;-53
2022/07/23 00:12:36;;;;;;;7.50;7.00;;;;;;;22.86;70.37;98557.03;4167850;28;20215;-54
2022/07/23 00:14:50;;;;;;;6.63;6.03;;;;;;;22.89;70.36;98559.16;4175615;28;20207;-53
2022/07/23 00:16:52;;;;;;;7.38;6.78;;;;;;;22.93;70.89;98563.78;4167393;28;20211;-51
2022/07/23 00:18:53;;;;;;;7.97;7.47;;;;;;;22.90;71.66;98560.81;4167314;28;20222;-53
2022/07/23 00:20:55;;;;;;;7.43;6.70;;;;;;;22.89;71.09;98576.75;4169605;28;21322;-52
2022/07/23 00:22:57;;;;;;;7.00;6.50;;;;;;;22.93;71.11;98585.28;4178169;28;20208;-52
2022/07/23 00:24:58;;;;;;;6.55;6.05;;;;;;;22.87;71.66;98586.59;4171826;28;20223;-53
2022/07/23 00:27:20;;;;;;;8.13;7.50;;;;;;;22.77;71.93;98567.38;4170300;28;20394;-52
2022/07/23 00:29:22;;;;;;;9.05;8.25;;;;;;;22.73;72.10;98563.59;4171810;28;20270;-53
2022/07/23 00:31:24;;;;;;;9.48;8.68;;;;;;;22.53;73.21;98559.50;4169594;28;20218;-52
2022/07/23 00:33:25;;;;;;;8.38;7.70;;;;;;;22.39;73.12;98542.06;4178519;28;20203;-52
2022/07/23 00:35:29;;;;;;;14.20;7.53;;;;;;;22.29;73.40;98547.91;4168463;28;20212;-51
2022/07/23 00:37:31;;;;;;;8.43;7.65;;;;;;;22.28;73.40;98545.44;4168902;28;20208;-53
2022/07/23 00:39:32;;;;;;;8.07;7.57;;;;;;;22.31;73.39;98544.81;4179360;28;20219;-52
2022/07/23 00:41:34;;;;;;;7.32;6.82;;;;;;;22.35;72.76;98549.41;4185219;28;20227;-53
2022/07/23 00:43:36;;;;;;;7.53;6.80;;;;;;;22.45;72.43;98545.53;4167366;28;20204;-52
2022/07/23 00:45:38;;;;;;;7.63;7.10;;;;;;;22.47;72.30;98534.84;4178742;28;20208;-52
2022/07/23 00:47:40;;;;;;;8.23;7.47;;;;;;;22.36;70.47;98503.63;4171264;28;20289;-52
2022/07/23 00:49:41;;;;;;;7.50;7.00;;;;;;;22.19;70.56;98500.00;4171362;28;20657;-53
2022/07/23 00:51:43;;;;;;;9.43;6.80;;;;;;;22.23;70.23;98509.38;4171829;28;20404;-53
2022/07/23 00:53:45;;;;;;;9.77;7.13;;;;;;;22.19;70.05;98513.94;4168741;28;20670;-53
2022/07/23 00:55:47;;;;;;;7.15;6.65;;;;;;;22.24;69.70;98536.13;4171586;28;20207;-52
2022/07/23 00:57:49;;;;;;;6.13;5.65;;;;;;;22.28;69.74;98551.03;4168788;28;20212;-53
2022/07/23 00:59:51;;;;;;;7.35;6.85;;;;;;;22.35;69.95;98552.19;4173746;28;20207;-52
2022/07/23 01:01:53;;;;;;;6.70;6.20;;;;;;;22.35;70.34;98555.00;4156412;28;20212;-52
2022/07/23 01:03:55;;;;;;;6.35;5.85;;;;;;;22.35;70.03;98570.88;4178718;28;20220;-53
2022/07/23 01:05:57;;;;;;;8.30;6.43;;;;;;;22.36;70.35;98572.53;4171149;28;20204;-51
2022/07/23 01:07:58;;;;;;;9.50;7.05;;;;;;;22.33;70.61;98581.56;4175896;28;20608;-51
2022/07/23 01:10:00;;;;;;;7.40;6.90;;;;;;;22.37;70.78;98590.94;4170542;28;20273;-51
2022/07/23 01:12:02;;;;;;;7.75;7.10;;;;;;;22.37;71.00;98599.31;4172321;28;20287;-51
2022/07/23 01:14:22;;;;;;;6.97;6.40;;;;;;;22.36;70.68;98620.78;4168211;28;20269;-52
2022/07/23 01:16:24;;;;;;;8.93;7.60;;;;;;;22.38;70.79;98635.22;4170708;28;20207;-52
2022/07/23 01:18:26;;;;;;;7.75;7.15;;;;;;;22.25;71.35;98633.38;4168927;28;20207;-51
2022/07/23 01:20:27;;;;;;;7.38;6.78;;;;;;;22.20;72.12;98629.91;4155464;28;20814;-51
2022/07/23 01:22:29;;;;;;;8.23;7.60;;;;;;;22.12;72.06;98623.16;4170034;28;20265;-51
2022/07/23 01:24:31;;;;;;;8.00;7.40;;;;;;;22.17;71.96;98616.63;4174725;28;20254;-53
2022/07/23 01:26:33;;;;;;;8.57;7.97;;;;;;;22.22;71.81;98591.38;4169903;28;20616;-53
2022/07/23 01:28:35;;;;;;;9.25;7.50;;;;;;;22.03;72.29;98588.03;4174394;28;20720;-51
2022/07/23 01:30:36;;;;;;;9.18;8.40;;;;;;;22.05;71.53;98567.03;4170381;28;20231;-51
2022/07/23 01:32:38;;;;;;;8.63;7.93;;;;;;;22.10;71.54;98566.09;4154893;28;20207;-52
2022/07/23 01:34:40;;;;;;;8.13;7.53;;;;;;;22.12;71.78;98558.22;4167839;28;20254;-52
2022/07/23 01:36:42;;;;;;;9.05;8.18;;;;;;;22.02;72.29;98552.94;4167672;28;20218;-53
2022/07/23 01:38:44;;;;;;;7.57;6.97;;;;;;;22.04;72.42;98551.47;4169470;28;20266;-52
2022/07/23 01:40:46;;;;;;;7.63;7.13;;;;;;;22.05;72.45;98538.34;4165021;28;20227;-51
2022/07/23 01:42:54;;;;;;;10.20;7.43;;;;;;;22.04;72.62;98542.28;4169333;28;20215;-52
2022/07/23 01:44:56;;;;;;;8.85;8.15;;;;;;;22.06;73.20;98537.22;4183158;28;20220;-51
2022/07/23 01:46:58;;;;;;;7.97;7.38;;;;;;;21.91;74.12;98530.09;4168652;28;20216;-53
2022/07/23 01:49:00;;;;;;;8.60;7.75;;;;;;;21.89;74.09;98531.56;4168761;28;20254;-51
2022/07/23 01:51:02;;;;;;;9.38;8.45;;;;;;;21.75;75.21;98508.56;4169273;28;20227;-53
2022/07/23 01:53:04;;;;;;;9.55;8.85;;;;;;;21.70;74.53;98494.81;4171541;28;20200;-54
2022/07/23 01:55:08;;;;;;;9.80;9.10;;;;;;;21.58;75.03;98491.78;4169936;28;20204;-51
2022/07/23 01:57:09;;;;;;;9.07;8.25;;;;;;;21.62;74.49;98498.31;4169413;28;20257;-51
2022/07/23 01:59:11;;;;;;;12.30;7.88;;;;;;;21.67;73.85;98526.09;4167175;28;20203;-53
2022/07/23 02:01:13;;;;;;;8.48;7.88;;;;;;;21.74;73.90;98506.94;4167316;28;20232;-52
2022/07/23 02:03:15;;;;;;;8.90;8.20;;;;;;;21.60;74.95;98486.69;4174111;28;20294;-51
2022/07/23 02:05:16;;;;;;;11.07;10.02;;;;;;;21.42;75.74;98487.75;4170806;28;20223;-53
2022/07/23 02:07:18;;;;;;;9.75;8.68;;;;;;;21.48;75.09;98490.09;4170771;28;20273;-53
2022/07/23 02:09:20;;;;;;;8.60;7.95;;;;;;;21.56;74.30;98505.19;4175461;28;20280;-52
2022/07/23 02:11:21;;;;;;;8.77;8.18;;;;;;;21.66;74.28;98499.34;4168635;28;20227;-53
2022/07/23 02:13:23;;;;;;;7.75;7.25;;;;;;;21.69;74.48;98493.16;4188172;28;20266;-53
2022/07/23 02:15:25;;;;;;;8.68;8.05;;;;;;;21.70;74.26;98506.75;4154423;28;20204;-53
2022/07/23 02:17:26;;;;;;;10.13;7.85;;;;;;;21.72;74.03;98531.53;4168285;28;20649;-52
2022/07/23 02:19:28;;;;;;;16.38;8.10;;;;;;;21.72;74.14;98532.31;4183711;28;20211;-56
2022/07/23 02:21:30;;;;;;;8.57;7.97;;;;;;;21.71;74.10;98535.44;4169136;28;20625;-53
2022/07/23 02:23:32;;;;;;;8.15;7.45;;;;;;;21.67;74.23;98529.69;4187908;28;20213;-54
2022/07/23 02:25:34;;;;;;;8.35;7.70;;;;;;;21.73;74.11;98538.72;4169366;28;20345;-56
2022/07/23 02:27:36;;;;;;;9.00;8.30;;;;;;;21.66;74.39;98550.34;4168435;28;20204;-54
2022/07/23 02:29:37;;;;;;;8.60;8.10;;;;;;;21.73;74.65;98553.50;4177013;28;20269;-54
2022/07/23 02:31:39;;;;;;;9.18;8.35;;;;;;;21.76;74.81;98560.38;4184203;28;20685;-54
2022/07/23 02:33:41;;;;;;;9.63;8.90;;;;;;;21.66;75.01;98552.28;4168953;28;20211;-53
2022/07/23 02:35:42;;;;;;;8.50;7.80;;;;;;;21.61;74.97;98557.97;4170177;28;20200;-53
2022/07/23 02:37:44;;;;;;;8.65;7.75;;;;;;;21.58;74.68;98564.19;4174210;28;20238;-53
2022/07/23 02:39:48;;;;;;;13.32;8.25;;;;;;;21.58;74.71;98570.56;4183843;28;20251;-53
2022/07/23 02:41:50;;;;;;;9.52;8.73;;;;;;;21.53;74.99;98564.34;4157662;28;20831;-53
2022/07/23 02:43:52;;;;;;;10.23;8.27;;;;;;;21.38;75.95;98564.75;4168133;28;20287;-53
2022/07/23 02:45:54;;;;;;;9.05;8.30;;;;;;;21.17;76.67;98553.31;4168350;28;20223;-54
2022/07/23 02:47:55;;;;;;;10.32;9.32;;;;;;;20.79;78.75;98557.56;4175121;28;20215;-53
2022/07/23 02:49:57;;;;;;;9.27;8.57;;;;;;;20.64;79.93;98551.56;4153026;28;20224;-54
2022/07/23 02:51:58;;;;;;;10.73;10.02;;;;;;;20.38;81.35;98550.50;4168031;28;20207;-51
2022/07/23 02:54:01;;;;;;;11.73;10.95;;;;;;;20.46;81.18;98558.09;4171736;28;20287;-55
2022/07/23 02:56:02;;;;;;;11.10;10.40;;;;;;;20.50;81.06;98559.94;4167379;28;20208;-55
2022/07/23 02:58:04;;;;;;;10.23;9.52;;;;;;;20.28;81.85;98567.38;4184430;28;20211;-55
2022/07/23 03:00:07;;;;;;;11.23;10.45;;;;;;;20.25;81.98;98556.91;4168612;28;20219;-53
2022/07/23 03:02:09;;;;;;;11.77;10.43;;;;;;;20.14;82.55;98549.91;4184085;28;20245;-51
2022/07/23 03:04:11;;;;;;;11.63;10.63;;;;;;;20.17;82.29;98533.44;4170394;28;20208;-52
2022/07/23 03:06:13;;;;;;;10.73;10.02;;;;;;;20.21;82.09;98540.03;4151702;28;20213;-53
2022/07/23 03:08:15;;;;;;;10.98;10.20;;;;;;;20.37;81.13;98532.19;4168052;28;20558;-54
2022/07/23 03:10:17;;;;;;;10.02;9.32;;;;;;;20.52;80.29;98540.97;4171697;28;20247;-52
2022/07/23 03:12:19;;;;;;;9.25;8.70;;;;;;;20.68;79.47;98544.22;4171394;28;20208;-53
2022/07/23 03:14:20;;;;;;;9.82;9.13;;;;;;;20.81;78.70;98543.34;4175643;28;20708;-53
2022/07/23 03:16:22;;;;;;;10.88;8.48;;;;;;;20.89;78.27;98551.78;4171101;28;20811;-52
2022/07/23 03:18:24;;;;;;;10.10;9.43;;;;;;;20.98;78.07;98543.53;4177337;28;20290;-52
2022/07/23 03:20:29;;;;;;;9.35;8.35;;;;;;;21.00;78.81;98541.22;4171727;28;20597;-53
2022/07/23 03:22:30;;;;;;;9.35;8.80;;;;;;;21.03;78.26;98535.03;4176268;28;20306;-51
2022/07/23 03:26:52;;;;;;;9.93;9.32;;;;;;;21.05;78.40;98549.47;4171866;28;20246;-52
2022/07/23 03:28:54;;;;;;;9.80;9.20;;;;;;;21.06;78.02;98562.22;4172944;28;20220;-53
2022/07/23 03:30:56;;;;;;;9.65;8.95;;;;;;;21.07;77.76;98561.09;4170167;28;20238;-52
2022/07/23 03:32:58;;;;;;;9.38;8.68;;;;;;;21.07;77.59;98569.44;4185923;28;20559;-52
2022/07/23 03:34:59;;;;;;;8.57;7.88;;;;;;;21.13;77.67;98584.88;4184479;28;20622;-53
2022/07/23 03:37:01;;;;;;;8.93;8.23;;;;;;;21.12;77.61;98583.22;4169347;28;20269;-52
2022/07/23 03:39:03;;;;;;;9.90;9.20;;;;;;;21.14;77.49;98592.09;4164586;28;20215;-51
2022/07/23 03:41:06;;;;;;;9.75;9.13;;;;;;;21.20;77.14;98585.25;4161339;28;20761;-52
2022/07/23 03:43:08;;;;;;;9.05;8.35;;;;;;;21.19;77.18;98594.75;4169724;28;20200;-52
2022/07/23 03:45:10;;;;;;;9.73;9.13;;;;;;;21.16;77.46;98589.78;4165125;28;20223;-53
2022/07/23 03:47:11;;;;;;;10.02;9.32;;;;;;;21.16;77.35;98600.94;4186613;28;20618;-51
2022/07/23 03:49:13;;;;;;;10.57;9.82;;;;;;;21.21;77.13;98607.22;4174540;28;20234;-53
2022/07/23 03:51:15;;;;;;;8.43;7.82;;;;;;;21.23;77.42;98596.56;4172981;28;20258;-51
2022/07/23 03:53:16;;;;;;;9.38;8.77;;;;;;;21.06;77.96;98584.50;4171331;28;20199;-51
2022/07/23 03:55:18;;;;;;;9.23;8.63;;;;;;;20.97;78.39;98572.50;4170502;28;20734;-51
2022/07/23 03:57:20;;;;;;;10.88;10.18;;;;;;;20.84;79.57;98559.44;4178106;28;20211;-51
2022/07/23 03:59:22;;;;;;;11.10;10.30;;;;;;;20.80;79.90;98566.75;4186771;28;20289;-52
2022/07/23 04:01:24;;;;;;;10.15;9.35;;;;;;;20.82;79.92;98558.91;4176454;28;20276;-52
2022/07/23 04:03:26;;;;;;;10.18;9.38;;;;;;;20.85;80.09;98563.84;4175423;28;20235;-52
2022/07/23 04:05:28;;;;;;;10.90;9.23;;;;;;;20.59;80.75;98580.28;4171045;28;20243;-53
2022/07/23 04:07:30;;;;;;;11.90;9.20;;;;;;;20.68;80.56;98594.28;4177251;28;20258;-54
2022/07/23 04:09:32;;;;;;;9.55;8.82;;;;;;;20.68;80.33;98591.50;4171832;28;20212;-52
2022/07/23 04:11:34;;;;;;;9.73;9.02;;;;;;;20.55;80.80;98584.84;4173080;28;20227;-54
2022/07/23 04:13:36;;;;;;;10.07;9.18;;;;;;;20.59;80.45;98582.28;4177441;28;20277;-54
2022/07/23 04:15:38;;;;;;;9.20;8.52;;;;;;;20.65;80.11;98579.03;4171277;28;20665;-53
2022/07/23 04:17:39;;;;;;;7.53;6.93;;;;;;;20.70;79.83;98573.38;4173957;28;20271;-53
2022/07/23 04:19:43;;;;;;;8.38;7.70;;;;;;;20.76;79.72;98574.91;4173902;28;20278;-53
2022/07/23 04:21:45;;;;;;;8.38;7.88;;;;;;;20.79;79.41;98584.56;4175620;28;20196;-53
2022/07/23 04:23:46;;;;;;;9.65;8.95;;;;;;;20.78;79.18;98589.31;4171096;28;20230;-52
2022/07/23 04:25:48;;;;;;;8.32;7.65;;;;;;;20.78;79.15;98599.63;4173897;28;20223;-51
2022/07/23 04:27:50;;;;;;;8.13;7.55;;;;;;;20.80;78.89;98605.69;4173680;28;20231;-51
2022/07/23 04:29:51;;;;;;;7.82;7.32;;;;;;;20.82;78.71;98617.31;4173443;28;20900;-53
2022/07/23 04:31:53;;;;;;;8.05;7.25;;;;;;;20.80;78.68;98623.22;4171011;28;20238;-53
2022/07/23 04:33:55;;;;;;;8.00;7.50;;;;;;;20.80;78.72;98631.56;4172929;28;20654;-52
2022/07/23 04:35:56;;;;;;;7.53;7.03;;;;;;;20.84;78.40;98637.31;4175647;28;21130;-52
2022/07/23 04:37:59;;;;;;;8.63;7.95;;;;;;;20.46;80.02;98641.50;4176649;28;20208;-52
2022/07/23 04:40:00;;;;;;;8.63;8.05;;;;;;;20.26;79.97;98647.50;4190221;28;20632;-53
2022/07/23 04:42:02;;;;;;;9.15;7.95;;;;;;;20.28;80.01;98645.22;4176937;28;20246;-53
2022/07/23 04:44:04;;;;;;;8.60;7.90;;;;;;;20.39;79.48;98641.09;4188452;28;20228;-52
2022/07/23 04:46:05;;;;;;;9.27;8.48;;;;;;;20.35;79.75;98643.69;4171249;28;20234;-52
2022/07/23 04:48:07;;;;;;;9.82;9.10;;;;;;;20.15;81.29;98651.59;4170857;28;20204;-51
2022/07/23 04:50:10;;;;;;;9.48;8.82;;;;;;;20.21;81.02;98661.50;4171041;28;20598;-53
2022/07/23 04:52:11;;;;;;;8.95;8.35;;;;;;;20.28;80.99;98656.34;4172115;28;20204;-51
2022/07/23 04:54:13;;;;;;;9.05;8.20;;;;;;;20.31;81.49;98661.31;4172351;28;20204;-52
2022/07/23 04:56:15;;;;;;;10.40;9.48;;;;;;;20.33;81.48;98659.88;4183344;28;20199;-53
2022/07/23 04:58:17;;;;;;;10.77;9.93;;;;;;;20.22;82.21;98652.84;4171897;28;20207;-52
2022/07/23 05:00:18;;;;;;;10.18;9.27;;;;;;;20.21;82.03;98651.22;4174468;28;21168;-53
2022/07/23 05:02:20;;;;;;;9.32;8.73;;;;;;;20.24;81.48;98656.13;4175505;28;20239;-52
2022/07/23 05:04:22;;;;;;;8.73;8.13;;;;;;;20.26;81.53;98664.19;4184896;28;20208;-54
2022/07/23 05:06:24;;;;;;;10.27;7.72;;;;;;;20.36;81.12;98666.72;4170090;28;20223;-52
2022/07/23 05:08:25;;;;;;;8.38;7.70;;;;;;;20.39;80.77;98668.91;4167743;28;20207;-51
2022/07/23 05:10:27;;;;;;;8.93;8.30;;;;;;;20.39;81.04;98660.56;4172698;28;20230;-51
2022/07/23 05:12:29;;;;;;;8.98;8.27;;;;;;;20.43;80.86;98661.56;4169966;28;20211;-51
2022/07/23 05:14:30;;;;;;;9.27;8.48;;;;;;;20.43;80.75;98667.97;4167442;28;20358;-51
2022/07/23 05:16:32;;;;;;;8.65;7.95;;;;;;;20.48;80.71;98661.47;4160853;28;20204;-53
2022/07/23 05:18:34;;;;;;;8.45;7.85;;;;;;;20.54;80.16;98660.25;4153709;28;20268;-53
2022/07/23 05:20:36;;;;;;;12.10;7.90;;;;;;;20.58;80.28;98666.84;4162023;28;20274;-54
2022/07/23 05:22:37;;;;;;;9.55;8.85;;;;;;;20.58;79.86;98661.28;4161174;28;20208;-54
2022/07/23 05:24:39;;;;;;;11.80;7.90;;;;;;;20.56;79.92;98663.53;4156597;28;20197;-51
2022/07/23 05:26:41;;;;;;;11.18;8.18;;;;;;;20.55;79.17;98667.44;4161650;28;20239;-54
2022/07/23 05:28:43;;;;;;;8.55;7.88;;;;;;;20.59;78.92;98662.91;4157595;28;20216;-54
2022/07/23 05:30:50;;;;;;;9.82;7.70;;;;;;;20.62;78.54;98663.13;4155587;28;20318;-51
2022/07/23 05:32:52;;;;;;;8.93;8.23;;;;;;;20.64;78.55;98665.59;4158277;28;20200;-51
2022/07/23 05:34:53;;;;;;;9.38;8.68;;;;;;;20.68;78.29;98672.16;4149921;28;20208;-53
2022/07/23 05:36:55;;;;;;;9.55;8.85;;;;;;;20.75;78.11;98672.56;4162485;28;20379;-55
2022/07/23 05:38:57;;;;;;;10.35;9.63;;;;;;;20.78;77.92;98675.53;4155799;28;20303;-53
2022/07/23 05:41:01;;;;;;;9.60;8.80;;;;;;;20.82;77.19;98679.38;4153501;28;20320;-53
2022/07/23 05:43:03;;;;;;;10.63;9.82;;;;;;;20.84;77.29;98677.09;4154452;28;20208;-54
2022/07/23 05:45:05;;;;;;;11.48;10.32;;;;;;;20.91;76.60;98677.50;4153110;28;20259;-53
2022/07/23 05:47:07;;;;;;;9.45;8.65;;;;;;;20.88;76.57;98671.75;4160734;28;20223;-52
2022/07/23 05:49:09;;;;;;;10.95;9.95;;;;;;;20.78;77.25;98688.66;4158331;28;20341;-51
2022/07/23 05:51:11;;;;;;;11.73;10.57;;;;;;;20.73;77.48;98691.53;4157129;28;20555;-53
2022/07/23 05:53:13;;;;;;;10.80;9.52;;;;;;;20.82;77.10;98693.28;4156536;28;20216;-52
2022/07/23 05:55:14;;;;;;;10.77;9.85;;;;;;;21.01;77.59;98698.72;4155256;28;20200;-54
2022/07/23 05:57:16;;;;;;;10.02;9.23;;;;;;;20.89;77.25;98701.22;4136366;28;20205;-53
2022/07/23 05:59:25;;;;;;;8.98;8.43;;;;;;;20.93;77.13;98702.25;4153900;28;20211;-53
2022/07/23 06:01:27;;;;;;;8.88;7.75;;;;;;;20.99;76.78;98701.00;4157020;28;20228;-54
2022/07/23 06:03:29;;;;;;;8.27;7.57;;;;;;;21.02;76.41;98705.94;4153385;28;20244;-53
2022/07/23 06:05:30;;;;;;;9.68;9.02;;;;;;;20.98;76.44;98710.50;4152237;28;20223;-52
2022/07/23 06:07:32;;;;;;;9.68;8.98;;;;;;;20.88;75.97;98721.84;4166395;28;20230;-51
2022/07/23 06:09:34;;;;;;;9.50;8.70;;;;;;;20.84;76.36;98715.22;4142065;28;20219;-53
2022/07/23 06:11:35;;;;;;;10.15;9.25;;;;;;;20.87;76.78;98711.81;4154957;28;20224;-51
2022/07/23 06:13:37;;;;;;;9.20;8.52;;;;;;;20.85;76.09;98714.09;4155806;28;20298;-51
2022/07/23 06:15:39;;;;;;;9.95;9.30;;;;;;;20.71;76.80;98716.06;4158801;28;20624;-52
2022/07/23 06:17:41;;;;;;;9.68;8.95;;;;;;;20.77;77.28;98706.47;4140923;28;20201;-50
2022/07/23 06:19:42;;;;;;;9.95;8.88;;;;;;;20.90;77.45;98709.25;4157403;28;20714;-50
2022/07/23 06:21:44;;;;;;;9.77;9.07;;;;;;;20.77;77.48;98709.25;4155225;28;20274;-51
2022/07/23 06:23:48;;;;;;;9.57;8.85;;;;;;;20.74;77.33;98709.88;4157757;28;20287;-52
2022/07/23 06:25:49;;;;;;;11.05;10.18;;;;;;;20.83;76.99;98705.19;4134303;28;20232;-54
2022/07/23 06:27:51;;;;;;;9.32;8.27;;;;;;;20.84;77.05;98709.66;4153945;28;20204;-55
2022/07/23 06:29:53;;;;;;;10.52;9.63;;;;;;;20.90;77.34;98709.25;4153883;28;20449;-53
2022/07/23 06:31:57;;;;;;;9.82;9.07;;;;;;;21.00;77.18;98708.22;4155951;28;20262;-53
2022/07/23 06:33:59;;;;;;;10.07;9.32;;;;;;;21.09;77.94;98711.88;4157896;28;20236;-54
2022/07/23 06:36:01;;;;;;;9.35;8.50;;;;;;;21.20;78.06;98713.31;4154970;28;20720;-54
2022/07/23 06:38:03;;;;;;;10.20;8.48;;;;;;;21.26;76.39;98723.19;4155240;28;20239;-53
2022/07/23 06:40:05;;;;;;;10.95;9.80;;;;;;;21.32;76.40;98716.38;4167462;28;20232;-53
2022/07/23 06:42:07;;;;;;;10.20;9.35;;;;;;;21.39;75.59;98716.75;4157951;28;20203;-53
2022/07/23 06:44:09;;;;;;;10.68;9.77;;;;;;;21.40;75.37;98721.19;4153609;28;20676;-54
2022/07/23 06:46:11;;;;;;;10.60;9.90;;;;;;;21.38;75.25;98721.50;4148131;28;20675;-54
2022/07/23 06:48:13;;;;;;;10.63;9.65;;;;;;;21.62;75.36;98726.75;4167532;28;20208;-55
2022/07/23 06:50:15;;;;;;;10.00;9.40;;;;;;;21.70;75.16;98734.41;4138664;28;20224;-53
2022/07/23 06:52:17;;;;;;;10.90;10.15;;;;;;;21.80;74.43;98728.56;4153564;28;20208;-53
2022/07/23 06:54:18;;;;;;;10.85;9.98;;;;;;;21.91;73.78;98725.19;4156591;28;20272;-53
2022/07/23 06:56:20;;;;;;;10.75;9.95;;;;;;;21.91;73.21;98719.63;4156486;28;20285;-53
2022/07/23 06:58:22;;;;;;;9.90;8.98;;;;;;;21.90;74.41;98728.31;4160459;28;20666;-53
2022/07/23 07:00:26;;;;;;;10.77;9.93;;;;;;;21.98;75.40;98722.78;4167713;28;20224;-55
2022/07/23 07:02:28;;;;;;;10.38;9.50;;;;;;;22.07;74.91;98736.78;4152031;28;20258;-53
2022/07/23 07:04:29;;;;;;;10.45;8.95;;;;;;;22.09;74.19;98740.06;4167114;28;20684;-55
2022/07/23 07:06:31;;;;;;;10.70;9.55;;;;;;;22.08;73.64;98747.63;4170005;28;20231;-55
2022/07/23 07:08:33;;;;;;;9.60;8.85;;;;;;;22.04;72.51;98752.16;4149125;28;20470;-54
2022/07/23 07:10:34;;;;;;;10.77;9.75;;;;;;;21.95;72.83;98758.81;4151803;28;20882;-52
2022/07/23 07:12:36;;;;;;;10.05;9.23;;;;;;;21.75;72.83;98743.47;4156399;28;20208;-52
2022/07/23 07:14:38;;;;;;;11.55;10.35;;;;;;;21.75;73.82;98753.78;4158174;28;20262;-51
2022/07/23 07:16:40;;;;;;;10.70;9.90;;;;;;;21.91;73.55;98757.84;4152042;28;20204;-52
2022/07/23 07:18:41;;;;;;;9.65;8.88;;;;;;;22.17;72.70;98756.03;4155290;28;20211;-51
2022/07/23 07:20:43;;;;;;;10.25;9.43;;;;;;;22.29;72.41;98764.63;4152296;28;20295;-51
2022/07/23 07:22:45;;;;;;;9.27;8.57;;;;;;;22.26;71.92;98756.91;4154956;28;20614;-51
2022/07/23 07:24:47;;;;;;;11.10;10.30;;;;;;;21.80;71.68;98756.44;4152636;28;20578;-51
2022/07/23 07:26:48;;;;;;;10.25;9.45;;;;;;;21.94;73.09;98751.59;4154289;28;20227;-52
2022/07/23 07:28:50;;;;;;;10.55;9.65;;;;;;;22.06;72.28;98763.00;4153439;28;20203;-51
2022/07/23 07:30:52;;;;;;;9.20;8.48;;;;;;;22.32;72.18;98761.19;4150874;28;20228;-52
2022/07/23 07:32:53;;;;;;;9.30;8.63;;;;;;;22.29;71.67;98759.03;4157361;28;20208;-51
2022/07/23 07:34:58;;;;;;;9.95;9.00;;;;;;;22.38;72.17;98765.50;4152787;28;20691;-52
2022/07/23 07:37:00;;;;;;;9.15;8.32;;;;;;;22.38;71.29;98757.13;4152047;28;20200;-53
2022/07/23 07:39:02;;;;;;;10.98;9.93;;;;;;;22.36;72.03;98767.75;4151132;28;20266;-50
2022/07/23 07:41:05;;;;;;;10.80;8.77;;;;;;;22.70;69.66;98762.41;4154579;28;20239;-51
2022/07/23 07:43:07;;;;;;;10.57;9.57;;;;;;;22.72;69.60;98768.47;4151521;28;20668;-53
2022/07/23 07:45:09;;;;;;;10.23;9.52;;;;;;;22.87;69.78;98770.81;4158429;28;20205;-51
2022/07/23 07:47:11;;;;;;;9.65;8.90;;;;;;;23.07;69.48;98781.38;4160332;28;20274;-52
2022/07/23 07:49:12;;;;;;;9.63;8.82;;;;;;;23.13;68.40;98788.47;4160054;28;20200;-51
2022/07/23 07:51:17;;;;;;;10.05;9.27;;;;;;;23.18;68.79;98782.78;4154786;28;20236;-52
2022/07/23 07:53:18;;;;;;;9.90;9.20;;;;;;;23.38;68.52;98779.34;4155357;28;20204;-51
2022/07/23 07:55:20;;;;;;;9.23;8.50;;;;;;;23.50;67.85;98785.13;4157282;28;20222;-51
2022/07/23 07:57:22;;;;;;;12.15;8.40;;;;;;;23.41;67.84;98781.47;4157321;28;20212;-53
2022/07/23 07:59:23;;;;;;;9.05;8.45;;;;;;;23.10;67.02;98791.94;4152238;28;20223;-53
2022/07/23 08:01:25;;;;;;;9.55;8.93;;;;;;;22.71;68.23;98784.38;4164837;28;20227;-53
2022/07/23 08:03:27;;;;;;;10.13;9.43;;;;;;;22.87;67.79;98793.16;4137546;28;20303;-53
2022/07/23 08:05:30;;;;;;;8.02;7.47;;;;;;;22.91;67.78;98788.56;4152385;28;20235;-54
2022/07/23 08:07:32;;;;;;;10.18;9.40;;;;;;;23.13;66.71;98794.06;4167213;28;20753;-52
2022/07/23 08:09:34;;;;;;;9.73;8.95;;;;;;;23.24;67.71;98799.03;4154825;28;20703;-53
2022/07/23 08:11:35;;;;;;;13.65;10.43;;;;;;;23.45;67.75;98788.88;4159586;28;20721;-51
2022/07/23 08:13:37;;;;;;;11.73;9.60;;;;;;;23.43;65.56;98785.59;4158112;28;20208;-52
2022/07/23 08:15:39;;;;;;;8.48;7.88;;;;;;;23.12;66.18;98792.41;4156313;28;20255;-51
2022/07/23 08:17:42;;;;;;;10.80;9.93;;;;;;;23.41;66.68;98781.47;4156698;28;20208;-53
2022/07/23 08:19:44;;;;;;;14.25;7.93;;;;;;;23.53;66.95;98784.47;4151076;28;20205;-52
2022/07/23 08:21:46;;;;;;;7.82;7.35;;;;;;;24.05;65.60;98784.97;4153456;28;20228;-53
2022/07/23 08:23:48;;;;;;;7.72;7.22;;;;;;;24.47;64.38;98781.25;4153500;28;20204;-52
2022/07/23 08:25:50;;;;;;;8.98;8.18;;;;;;;24.16;64.48;98777.91;4152426;28;20200;-52
2022/07/23 08:27:52;;;;;;;8.90;8.27;;;;;;;24.49;64.31;98775.34;4156978;28;20212;-52
2022/07/23 08:29:54;;;;;;;8.38;7.78;;;;;;;24.29;63.97;98782.47;4156040;28;20208;-52
2022/07/23 08:31:55;;;;;;;8.80;8.20;;;;;;;23.98;64.03;98777.44;4168080;28;20574;-52
2022/07/23 08:33:57;;;;;;;9.57;8.88;;;;;;;23.88;64.52;98777.75;4155303;28;20224;-51
2022/07/23 08:36:02;;;;;;;9.10;8.43;;;;;;;24.22;64.51;98782.16;4147799;28;20678;-53
2022/07/23 08:38:06;;;;;;;10.30;9.40;;;;;;;24.26;64.08;98782.31;4151949;28;20204;-51
2022/07/23 08:40:09;;;;;;;8.45;7.80;;;;;;;24.67;64.09;98776.97;4157150;28;20227;-53
2022/07/23 08:42:12;;;;;;;8.60;7.95;;;;;;;25.02;62.89;98779.25;4150501;28;20220;-52
2022/07/23 08:44:16;;;;;;;8.38;7.78;;;;;;;25.39;61.85;98788.81;4158847;28;20212;-53
2022/07/23 08:46:19;;;;;;;9.15;8.23;;;;;;;25.79;61.27;98788.00;4154260;28;20362;-51
2022/07/23 08:48:23;;;;;;;8.48;7.78;;;;;;;26.09;61.31;98792.38;4156953;28;20634;-53
2022/07/23 08:50:25;;;;;;;7.05;6.47;;;;;;;26.35;59.68;98790.16;4156472;28;20227;-53
2022/07/23 08:52:30;;;;;;;8.27;7.57;;;;;;;25.79;59.63;98793.59;4155402;28;20745;-54
2022/07/23 08:54:34;;;;;;;9.43;8.73;;;;;;;25.67;61.06;98785.09;4159747;28;20211;-52
2022/07/23 08:56:36;;;;;;;8.95;8.25;;;;;;;26.00;60.95;98788.81;4154276;28;20243;-52
2022/07/23 08:58:38;;;;;;;8.50;7.80;;;;;;;25.72;58.55;98790.53;4154040;28;20254;-51
2022/07/23 09:00:39;;;;;;;8.23;7.43;;;;;;;25.70;59.54;98784.44;4154478;28;20228;-52
2022/07/23 09:02:43;;;;;;;8.43;7.82;;;;;;;25.74;60.36;98785.38;4152804;28;20880;-52
2022/07/23 09:04:47;;;;;;;8.88;7.40;;;;;;;25.97;58.94;98788.69;4152505;28;20422;-52
2022/07/23 09:06:49;;;;;;;7.82;7.22;;;;;;;25.74;59.31;98785.38;4158201;28;20683;-51
2022/07/23 09:08:51;;;;;;;7.72;7.07;;;;;;;26.23;59.36;98795.72;4144345;28;20295;-51
2022/07/23 09:10:54;;;;;;;7.35;6.85;;;;;;;26.11;58.75;98789.22;4155907;28;20219;-53
2022/07/23 09:12:56;;;;;;;7.70;7.10;;;;;;;26.40;58.52;98797.53;4158650;28;20270;-52
2022/07/23 09:15:04;;;;;;;7.65;7.05;;;;;;;26.88;58.02;98798.47;4153202;28;20682;-53
2022/07/23 09:17:13;;;;;;;7.05;6.60;;;;;;;26.35;56.21;98789.31;4155843;28;20200;-57
2022/07/23 09:19:15;;;;;;;7.97;7.38;;;;;;;26.45;57.39;98797.31;4152976;28;20199;-55
2022/07/23 09:21:28;;;;;;;7.50;7.00;;;;;;;27.02;57.19;98798.13;4169750;28;20246;-54
2022/07/23 09:23:46;;;;;;;7.05;6.38;;;;;;;27.56;55.67;98797.56;4154372;28;20212;-55
2022/07/23 09:25:47;;;;;;;8.45;7.72;;;;;;;27.79;54.93;98787.44;4153840;28;20211;-54
2022/07/23 09:28:02;;;;;;;8.32;7.63;;;;;;;27.82;54.21;98783.94;4154259;28;20639;-54
2022/07/23 09:30:05;;;;;;;7.45;6.93;;;;;;;27.03;54.10;98789.34;4156729;28;20934;-57
2022/07/23 09:32:13;;;;;;;7.72;7.22;;;;;;;26.45;55.23;98795.31;4163639;28;20789;-56
2022/07/23 09:34:23;;;;;;;7.80;7.10;;;;;;;26.84;53.98;98789.09;4152746;28;20208;-55